sensor_id;sensor_type;location;lat;lon;timestamp;temperature;humidity
71879;DHT22;59755;43.834;4.364;2022-11-20T00:01:19;10.00;53.00
71879;DHT22;59755;43.834;4.364;2022-11-20T00:03:46;10.00;53.00
71879;DHT22;59755;43.834;4.364;2022-11-20T00:06:14;10.00;52.50
71879;DHT22;59755;43.834;4.364;2022-11-20T00:08:41;10.00;53.10
71879;DHT22;59755;43.834;4.364;2022-11-20T00:11:09;10.00;52.50
71879;DHT22;59755;43.834;4.364;2022-11-20T00:13:35;9.90;52.90
71879;DHT22;59755;43.834;4.364;2022-11-20T00:16:02;9.90;53.20
71879;DHT22;59755;43.834;4.364;2022-11-20T00:18:28;10.00;53.00
71879;DHT22;59755;43.834;4.364;2022-11-20T00:21:03;10.00;52.60
71879;DHT22;59755;43.834;4.364;2022-11-20T00:23:30;9.90;52.90
71879;DHT22;59755;43.834;4.364;2022-11-20T00:25:56;9.90;52.80
71879;DHT22;59755;43.834;4.364;2022-11-20T00:28:22;9.80;53.20
71879;DHT22;59755;43.834;4.364;2022-11-20T00:30:48;9.90;53.20
71879;DHT22;59755;43.834;4.364;2022-11-20T00:33:13;9.90;52.90
71879;DHT22;59755;43.834;4.364;2022-11-20T00:35:39;9.80;53.40
71879;DHT22;59755;43.834;4.364;2022-11-20T00:38:05;9.80;53.40
71879;DHT22;59755;43.834;4.364;2022-11-20T00:40:31;9.80;53.50
71879;DHT22;59755;43.834;4.364;2022-11-20T00:42:56;9.70;53.70
71879;DHT22;59755;43.834;4.364;2022-11-20T00:45:22;9.70;53.80
71879;DHT22;59755;43.834;4.364;2022-11-20T00:47:48;9.70;53.80
71879;DHT22;59755;43.834;4.364;2022-11-20T00:50:13;9.70;53.90
71879;DHT22;59755;43.834;4.364;2022-11-20T00:52:39;9.70;53.90
71879;DHT22;59755;43.834;4.364;2022-11-20T00:55:05;9.60;54.10
71879;DHT22;59755;43.834;4.364;2022-11-20T00:57:31;9.50;54.70
71879;DHT22;59755;43.834;4.364;2022-11-20T00:59:57;9.60;54.60
71879;DHT22;59755;43.834;4.364;2022-11-20T01:02:22;9.50;54.40
71879;DHT22;59755;43.834;4.364;2022-11-20T01:04:48;9.50;55.00
71879;DHT22;59755;43.834;4.364;2022-11-20T01:07:14;9.50;55.10
71879;DHT22;59755;43.834;4.364;2022-11-20T01:09:40;9.50;55.20
71879;DHT22;59755;43.834;4.364;2022-11-20T01:12:06;9.40;55.00
71879;DHT22;59755;43.834;4.364;2022-11-20T01:14:31;9.30;55.10
71879;DHT22;59755;43.834;4.364;2022-11-20T01:16:57;9.30;55.50
71879;DHT22;59755;43.834;4.364;2022-11-20T01:19:23;9.20;55.50
71879;DHT22;59755;43.834;4.364;2022-11-20T01:21:53;9.20;55.70
71879;DHT22;59755;43.834;4.364;2022-11-20T01:24:20;9.20;56.20
71879;DHT22;59755;43.834;4.364;2022-11-20T01:26:48;9.20;55.70
71879;DHT22;59755;43.834;4.364;2022-11-20T01:29:17;9.20;55.50
71879;DHT22;59755;43.834;4.364;2022-11-20T01:31:43;9.30;55.30
71879;DHT22;59755;43.834;4.364;2022-11-20T01:34:12;9.20;55.70
71879;DHT22;59755;43.834;4.364;2022-11-20T01:36:38;9.20;55.50
71879;DHT22;59755;43.834;4.364;2022-11-20T01:39:07;9.20;55.70
71879;DHT22;59755;43.834;4.364;2022-11-20T01:41:34;9.20;55.70
71879;DHT22;59755;43.834;4.364;2022-11-20T01:44:21;9.30;56.00
71879;DHT22;59755;43.834;4.364;2022-11-20T01:47:00;9.20;55.70
71879;DHT22;59755;43.834;4.364;2022-11-20T01:49:52;9.20;55.70
71879;DHT22;59755;43.834;4.364;2022-11-20T01:52:24;9.20;55.50
71879;DHT22;59755;43.834;4.364;2022-11-20T01:54:59;9.20;55.60
71879;DHT22;59755;43.834;4.364;2022-11-20T01:57:28;9.30;55.50
71879;DHT22;59755;43.834;4.364;2022-11-20T02:00:10;9.20;55.60
71879;DHT22;59755;43.834;4.364;2022-11-20T02:02:36;9.20;56.20
71879;DHT22;59755;43.834;4.364;2022-11-20T02:05:16;9.30;56.30
71879;DHT22;59755;43.834;4.364;2022-11-20T02:07:44;9.20;56.20
71879;DHT22;59755;43.834;4.364;2022-11-20T02:10:11;9.20;56.70
71879;DHT22;59755;43.834;4.364;2022-11-20T02:12:37;9.10;57.10
71879;DHT22;59755;43.834;4.364;2022-11-20T02:15:21;9.10;57.10
71879;DHT22;59755;43.834;4.364;2022-11-20T02:17:48;9.10;57.30
71879;DHT22;59755;43.834;4.364;2022-11-20T02:20:13;9.10;57.10
71879;DHT22;59755;43.834;4.364;2022-11-20T02:22:51;9.10;57.40
71879;DHT22;59755;43.834;4.364;2022-11-20T02:25:20;9.00;57.50
71879;DHT22;59755;43.834;4.364;2022-11-20T02:27:46;9.00;57.20
71879;DHT22;59755;43.834;4.364;2022-11-20T02:30:13;9.00;57.60
71879;DHT22;59755;43.834;4.364;2022-11-20T02:32:38;9.00;57.20
71879;DHT22;59755;43.834;4.364;2022-11-20T02:35:09;8.90;57.60
71879;DHT22;59755;43.834;4.364;2022-11-20T02:37:38;9.00;57.70
71879;DHT22;59755;43.834;4.364;2022-11-20T02:40:04;8.90;57.90
71879;DHT22;59755;43.834;4.364;2022-11-20T02:42:30;9.00;57.80
71879;DHT22;59755;43.834;4.364;2022-11-20T02:44:56;9.00;57.80
71879;DHT22;59755;43.834;4.364;2022-11-20T02:47:21;9.10;57.40
71879;DHT22;59755;43.834;4.364;2022-11-20T02:49:47;9.10;57.80
71879;DHT22;59755;43.834;4.364;2022-11-20T02:52:13;9.10;57.70
71879;DHT22;59755;43.834;4.364;2022-11-20T02:54:38;9.00;57.90
71879;DHT22;59755;43.834;4.364;2022-11-20T02:57:04;9.00;58.50
71879;DHT22;59755;43.834;4.364;2022-11-20T02:59:30;9.00;58.40
71879;DHT22;59755;43.834;4.364;2022-11-20T03:01:56;9.00;57.80
71879;DHT22;59755;43.834;4.364;2022-11-20T03:04:21;9.00;58.10
71879;DHT22;59755;43.834;4.364;2022-11-20T03:06:47;9.00;58.30
71879;DHT22;59755;43.834;4.364;2022-11-20T03:09:13;9.00;58.30
71879;DHT22;59755;43.834;4.364;2022-11-20T03:11:38;8.90;58.50
71879;DHT22;59755;43.834;4.364;2022-11-20T03:14:04;8.90;58.80
71879;DHT22;59755;43.834;4.364;2022-11-20T03:16:31;8.80;58.70
71879;DHT22;59755;43.834;4.364;2022-11-20T03:18:57;8.90;58.90
71879;DHT22;59755;43.834;4.364;2022-11-20T03:21:22;8.80;59.00
71879;DHT22;59755;43.834;4.364;2022-11-20T03:23:48;8.80;59.20
71879;DHT22;59755;43.834;4.364;2022-11-20T03:26:18;8.90;58.90
71879;DHT22;59755;43.834;4.364;2022-11-20T03:28:52;8.80;59.40
71879;DHT22;59755;43.834;4.364;2022-11-20T03:31:24;8.80;59.20
71879;DHT22;59755;43.834;4.364;2022-11-20T03:33:50;8.80;59.20
71879;DHT22;59755;43.834;4.364;2022-11-20T03:36:17;8.80;59.50
71879;DHT22;59755;43.834;4.364;2022-11-20T03:38:44;8.80;59.50
71879;DHT22;59755;43.834;4.364;2022-11-20T03:41:21;8.90;59.50
71879;DHT22;59755;43.834;4.364;2022-11-20T03:44:08;8.80;59.20
71879;DHT22;59755;43.834;4.364;2022-11-20T03:46:34;8.80;59.20
71879;DHT22;59755;43.834;4.364;2022-11-20T03:49:00;8.80;59.20
71879;DHT22;59755;43.834;4.364;2022-11-20T03:51:31;8.70;59.40
71879;DHT22;59755;43.834;4.364;2022-11-20T03:53:59;8.70;59.50
71879;DHT22;59755;43.834;4.364;2022-11-20T03:56:28;8.80;59.90
71879;DHT22;59755;43.834;4.364;2022-11-20T03:58:54;8.80;59.80
71879;DHT22;59755;43.834;4.364;2022-11-20T04:01:25;8.70;59.50
71879;DHT22;59755;43.834;4.364;2022-11-20T04:03:55;8.70;59.60
71879;DHT22;59755;43.834;4.364;2022-11-20T04:06:26;8.60;59.90
71879;DHT22;59755;43.834;4.364;2022-11-20T04:08:55;8.70;59.80
71879;DHT22;59755;43.834;4.364;2022-11-20T04:13:50;8.80;59.40
71879;DHT22;59755;43.834;4.364;2022-11-20T04:16:16;8.80;59.30
71879;DHT22;59755;43.834;4.364;2022-11-20T04:18:43;8.80;59.40
71879;DHT22;59755;43.834;4.364;2022-11-20T04:21:09;8.80;59.40
71879;DHT22;59755;43.834;4.364;2022-11-20T04:23:35;8.80;59.70
71879;DHT22;59755;43.834;4.364;2022-11-20T04:26:09;8.70;59.80
71879;DHT22;59755;43.834;4.364;2022-11-20T04:28:37;8.70;59.90
71879;DHT22;59755;43.834;4.364;2022-11-20T04:31:04;8.70;59.70
71879;DHT22;59755;43.834;4.364;2022-11-20T04:33:31;8.60;60.00
71879;DHT22;59755;43.834;4.364;2022-11-20T04:36:04;8.60;60.60
71879;DHT22;59755;43.834;4.364;2022-11-20T04:38:30;8.50;60.30
71879;DHT22;59755;43.834;4.364;2022-11-20T04:40:57;8.60;60.00
71879;DHT22;59755;43.834;4.364;2022-11-20T04:43:23;8.60;59.80
71879;DHT22;59755;43.834;4.364;2022-11-20T04:45:57;8.60;60.00
71879;DHT22;59755;43.834;4.364;2022-11-20T04:48:24;8.50;60.10
71879;DHT22;59755;43.834;4.364;2022-11-20T04:50:51;8.40;60.40
71879;DHT22;59755;43.834;4.364;2022-11-20T04:53:17;8.40;60.60
71879;DHT22;59755;43.834;4.364;2022-11-20T04:55:43;8.30;61.00
71879;DHT22;59755;43.834;4.364;2022-11-20T04:58:09;8.30;60.90
71879;DHT22;59755;43.834;4.364;2022-11-20T05:00:35;8.30;61.10
71879;DHT22;59755;43.834;4.364;2022-11-20T05:03:01;8.30;61.10
71879;DHT22;59755;43.834;4.364;2022-11-20T05:05:27;8.20;61.20
71879;DHT22;59755;43.834;4.364;2022-11-20T05:07:52;8.20;61.30
71879;DHT22;59755;43.834;4.364;2022-11-20T05:10:18;8.30;60.40
71879;DHT22;59755;43.834;4.364;2022-11-20T05:12:44;8.20;60.20
71879;DHT22;59755;43.834;4.364;2022-11-20T05:15:10;8.30;60.40
71879;DHT22;59755;43.834;4.364;2022-11-20T05:17:35;8.20;60.50
71879;DHT22;59755;43.834;4.364;2022-11-20T05:20:01;8.20;60.10
71879;DHT22;59755;43.834;4.364;2022-11-20T05:22:27;8.20;60.10
71879;DHT22;59755;43.834;4.364;2022-11-20T05:24:52;8.10;60.20
71879;DHT22;59755;43.834;4.364;2022-11-20T05:27:18;8.10;60.40
71879;DHT22;59755;43.834;4.364;2022-11-20T05:29:44;8.20;60.60
71879;DHT22;59755;43.834;4.364;2022-11-20T05:32:09;8.20;59.80
71879;DHT22;59755;43.834;4.364;2022-11-20T05:34:35;8.30;59.70
71879;DHT22;59755;43.834;4.364;2022-11-20T05:37:02;8.30;59.90
71879;DHT22;59755;43.834;4.364;2022-11-20T05:39:28;8.30;59.90
71879;DHT22;59755;43.834;4.364;2022-11-20T05:41:54;8.20;60.20
71879;DHT22;59755;43.834;4.364;2022-11-20T05:44:39;8.20;60.20
71879;DHT22;59755;43.834;4.364;2022-11-20T05:47:05;8.20;59.80
71879;DHT22;59755;43.834;4.364;2022-11-20T05:49:31;8.10;59.50
71879;DHT22;59755;43.834;4.364;2022-11-20T05:51:57;8.10;59.40
71879;DHT22;59755;43.834;4.364;2022-11-20T05:54:23;8.10;59.60
71879;DHT22;59755;43.834;4.364;2022-11-20T05:56:49;8.10;59.30
71879;DHT22;59755;43.834;4.364;2022-11-20T05:59:15;8.10;59.40
71879;DHT22;59755;43.834;4.364;2022-11-20T06:01:40;8.10;59.40
71879;DHT22;59755;43.834;4.364;2022-11-20T06:04:06;8.10;59.60
71879;DHT22;59755;43.834;4.364;2022-11-20T06:06:32;8.10;59.70
71879;DHT22;59755;43.834;4.364;2022-11-20T06:08:58;8.00;60.10
71879;DHT22;59755;43.834;4.364;2022-11-20T06:11:24;8.00;60.30
71879;DHT22;59755;43.834;4.364;2022-11-20T06:13:50;7.90;60.60
71879;DHT22;59755;43.834;4.364;2022-11-20T06:16:19;7.80;60.70
71879;DHT22;59755;43.834;4.364;2022-11-20T06:18:45;7.80;60.60
71879;DHT22;59755;43.834;4.364;2022-11-20T06:21:14;7.80;60.70
71879;DHT22;59755;43.834;4.364;2022-11-20T06:23:41;7.80;60.70
71879;DHT22;59755;43.834;4.364;2022-11-20T06:26:09;7.70;60.50
71879;DHT22;59755;43.834;4.364;2022-11-20T06:28:35;7.80;60.20
71879;DHT22;59755;43.834;4.364;2022-11-20T06:31:01;7.80;59.90
71879;DHT22;59755;43.834;4.364;2022-11-20T06:33:28;7.90;59.40
71879;DHT22;59755;43.834;4.364;2022-11-20T06:36:00;8.00;59.10
71879;DHT22;59755;43.834;4.364;2022-11-20T06:38:26;8.00;58.80
71879;DHT22;59755;43.834;4.364;2022-11-20T06:40:52;8.10;58.40
71879;DHT22;59755;43.834;4.364;2022-11-20T06:43:18;8.20;58.40
71879;DHT22;59755;43.834;4.364;2022-11-20T06:45:43;8.20;58.40
71879;DHT22;59755;43.834;4.364;2022-11-20T06:48:09;8.30;58.20
71879;DHT22;59755;43.834;4.364;2022-11-20T06:50:38;8.30;58.40
71879;DHT22;59755;43.834;4.364;2022-11-20T06:53:04;8.20;58.40
71879;DHT22;59755;43.834;4.364;2022-11-20T06:55:31;8.20;58.70
71879;DHT22;59755;43.834;4.364;2022-11-20T06:57:57;8.20;58.80
71879;DHT22;59755;43.834;4.364;2022-11-20T07:00:23;8.30;58.30
71879;DHT22;59755;43.834;4.364;2022-11-20T07:02:49;8.20;58.50
71879;DHT22;59755;43.834;4.364;2022-11-20T07:05:15;8.20;58.20
71879;DHT22;59755;43.834;4.364;2022-11-20T07:07:41;8.20;58.60
71879;DHT22;59755;43.834;4.364;2022-11-20T07:10:08;8.20;58.50
71879;DHT22;59755;43.834;4.364;2022-11-20T07:12:34;8.10;58.20
71879;DHT22;59755;43.834;4.364;2022-11-20T07:14:59;8.20;58.30
71879;DHT22;59755;43.834;4.364;2022-11-20T07:17:25;8.20;58.10
71879;DHT22;59755;43.834;4.364;2022-11-20T07:19:51;8.30;57.80
71879;DHT22;59755;43.834;4.364;2022-11-20T07:22:16;8.30;58.00
71879;DHT22;59755;43.834;4.364;2022-11-20T07:24:42;8.40;57.80
71879;DHT22;59755;43.834;4.364;2022-11-20T07:27:08;8.50;57.20
71879;DHT22;59755;43.834;4.364;2022-11-20T07:29:34;8.50;57.20
71879;DHT22;59755;43.834;4.364;2022-11-20T07:31:59;8.50;57.10
71879;DHT22;59755;43.834;4.364;2022-11-20T07:34:25;8.50;57.20
71879;DHT22;59755;43.834;4.364;2022-11-20T07:36:51;8.50;57.50
71879;DHT22;59755;43.834;4.364;2022-11-20T07:39:16;8.50;57.40
71879;DHT22;59755;43.834;4.364;2022-11-20T07:41:42;8.60;57.60
71879;DHT22;59755;43.834;4.364;2022-11-20T07:44:08;8.60;57.40
71879;DHT22;59755;43.834;4.364;2022-11-20T07:46:33;8.60;57.50
71879;DHT22;59755;43.834;4.364;2022-11-20T07:48:59;8.70;56.70
71879;DHT22;59755;43.834;4.364;2022-11-20T07:51:25;8.80;56.50
71879;DHT22;59755;43.834;4.364;2022-11-20T07:53:54;8.80;56.50
71879;DHT22;59755;43.834;4.364;2022-11-20T07:56:20;8.80;56.40
71879;DHT22;59755;43.834;4.364;2022-11-20T07:58:45;8.80;56.00
71879;DHT22;59755;43.834;4.364;2022-11-20T08:01:11;8.80;56.00
71879;DHT22;59755;43.834;4.364;2022-11-20T08:03:37;8.90;56.20
71879;DHT22;59755;43.834;4.364;2022-11-20T08:06:03;9.00;56.40
71879;DHT22;59755;43.834;4.364;2022-11-20T08:08:29;9.10;56.40
71879;DHT22;59755;43.834;4.364;2022-11-20T08:10:58;9.20;56.20
71879;DHT22;59755;43.834;4.364;2022-11-20T08:14:02;9.20;55.60
71879;DHT22;59755;43.834;4.364;2022-11-20T08:16:37;9.20;56.00
71879;DHT22;59755;43.834;4.364;2022-11-20T08:19:03;9.30;55.70
71879;DHT22;59755;43.834;4.364;2022-11-20T08:21:30;9.30;55.70
71879;DHT22;59755;43.834;4.364;2022-11-20T08:23:57;9.40;55.20
71879;DHT22;59755;43.834;4.364;2022-11-20T08:26:23;9.50;55.10
71879;DHT22;59755;43.834;4.364;2022-11-20T08:28:52;9.60;55.00
71879;DHT22;59755;43.834;4.364;2022-11-20T08:31:19;9.70;55.30
71879;DHT22;59755;43.834;4.364;2022-11-20T08:33:45;9.80;54.80
71879;DHT22;59755;43.834;4.364;2022-11-20T08:36:11;9.90;54.10
71879;DHT22;59755;43.834;4.364;2022-11-20T08:38:37;10.00;53.70
71879;DHT22;59755;43.834;4.364;2022-11-20T08:41:04;10.10;53.60
71879;DHT22;59755;43.834;4.364;2022-11-20T08:43:48;10.20;53.50
71879;DHT22;59755;43.834;4.364;2022-11-20T08:46:14;10.30;53.00
71879;DHT22;59755;43.834;4.364;2022-11-20T08:48:40;10.30;53.00
71879;DHT22;59755;43.834;4.364;2022-11-20T08:51:06;10.40;52.40
71879;DHT22;59755;43.834;4.364;2022-11-20T08:53:32;10.50;52.00
71879;DHT22;59755;43.834;4.364;2022-11-20T08:55:57;10.50;51.70
71879;DHT22;59755;43.834;4.364;2022-11-20T08:58:24;10.50;51.60
71879;DHT22;59755;43.834;4.364;2022-11-20T09:00:50;10.70;51.00
71879;DHT22;59755;43.834;4.364;2022-11-20T09:03:16;10.80;50.50
71879;DHT22;59755;43.834;4.364;2022-11-20T09:05:41;10.90;50.80
71879;DHT22;59755;43.834;4.364;2022-11-20T09:08:08;10.90;49.80
71879;DHT22;59755;43.834;4.364;2022-11-20T09:10:34;11.00;49.60
71879;DHT22;59755;43.834;4.364;2022-11-20T09:13:00;11.10;49.70
71879;DHT22;59755;43.834;4.364;2022-11-20T09:15:26;11.20;48.90
71879;DHT22;59755;43.834;4.364;2022-11-20T09:17:57;11.40;49.40
71879;DHT22;59755;43.834;4.364;2022-11-20T09:20:24;11.40;48.40
71879;DHT22;59755;43.834;4.364;2022-11-20T09:22:50;11.40;48.10
71879;DHT22;59755;43.834;4.364;2022-11-20T09:25:17;11.60;48.80
71879;DHT22;59755;43.834;4.364;2022-11-20T09:27:42;11.60;48.40
71879;DHT22;59755;43.834;4.364;2022-11-20T09:30:11;11.80;48.20
71879;DHT22;59755;43.834;4.364;2022-11-20T09:32:39;12.00;47.60
71879;DHT22;59755;43.834;4.364;2022-11-20T09:35:05;12.00;47.40
71879;DHT22;59755;43.834;4.364;2022-11-20T09:37:30;12.20;47.60
71879;DHT22;59755;43.834;4.364;2022-11-20T09:39:56;12.40;47.00
71879;DHT22;59755;43.834;4.364;2022-11-20T09:42:41;12.70;46.90
71879;DHT22;59755;43.834;4.364;2022-11-20T09:45:18;12.70;46.40
71879;DHT22;59755;43.834;4.364;2022-11-20T09:50:43;13.70;43.90
71879;DHT22;59755;43.834;4.364;2022-11-20T09:55:39;14.30;42.40
71879;DHT22;59755;43.834;4.364;2022-11-20T10:00:46;14.80;41.40
71879;DHT22;59755;43.834;4.364;2022-11-20T10:03:27;14.90;41.40
71879;DHT22;59755;43.834;4.364;2022-11-20T10:05:55;15.00;40.90
71879;DHT22;59755;43.834;4.364;2022-11-20T10:08:39;15.40;40.50
71879;DHT22;59755;43.834;4.364;2022-11-20T10:11:30;15.60;39.80
71879;DHT22;59755;43.834;4.364;2022-11-20T10:19:41;15.90;39.30
